createdAt,value
2018-08-30T00:01:03.072Z,16.80
2018-08-30T00:03:39.846Z,16.80
2018-08-30T00:06:13.613Z,16.80
2018-08-30T00:08:47.593Z,16.80
2018-08-30T00:11:23.082Z,16.80
2018-08-30T00:13:54.043Z,16.70
2018-08-30T00:16:29.997Z,16.60
2018-08-30T00:19:01.229Z,16.60
2018-08-30T00:21:35.747Z,16.60
2018-08-30T00:24:10.619Z,16.70
2018-08-30T00:26:41.829Z,16.70
2018-08-30T00:29:11.279Z,16.70
2018-08-30T00:31:44.029Z,16.70
2018-08-30T00:34:13.705Z,16.70
2018-08-30T00:36:44.851Z,16.70
2018-08-30T00:39:15.156Z,16.80
2018-08-30T00:41:56.601Z,16.80
2018-08-30T00:44:27.901Z,16.80
2018-08-30T00:47:01.832Z,16.80
2018-08-30T00:49:38.589Z,16.80
2018-08-30T00:52:10.246Z,16.90
2018-08-30T00:54:50.267Z,16.90
2018-08-30T00:57:29.891Z,16.90
2018-08-30T01:00:08.250Z,16.80
2018-08-30T01:02:49.388Z,16.90
2018-08-30T01:05:20.765Z,16.90
2018-08-30T01:07:59.744Z,16.90
2018-08-30T01:10:33.036Z,16.90
2018-08-30T01:15:49.729Z,16.90
2018-08-30T01:18:27.502Z,16.80
2018-08-30T01:21:01.344Z,16.90
2018-08-30T01:23:32.945Z,16.90
2018-08-30T01:26:05.768Z,16.80
2018-08-30T01:28:41.030Z,16.70
2018-08-30T01:31:15.155Z,16.80
2018-08-30T01:33:52.377Z,16.80
2018-08-30T01:36:27.670Z,16.90
2018-08-30T01:39:03.133Z,16.80
2018-08-30T01:41:37.928Z,16.80
2018-08-30T01:44:25.255Z,16.90
2018-08-30T01:46:59.971Z,16.90
2018-08-30T01:49:32.871Z,16.80
2018-08-30T01:52:06.354Z,16.80
2018-08-30T01:54:44.896Z,16.90
2018-08-30T01:57:24.288Z,16.90
2018-08-30T01:59:59.161Z,16.90
2018-08-30T02:02:30.295Z,16.90
2018-08-30T02:05:05.640Z,16.90
2018-08-30T02:07:36.882Z,16.90
2018-08-30T02:10:13.189Z,17.00
2018-08-30T02:12:49.003Z,16.90
2018-08-30T02:15:25.480Z,16.80
2018-08-30T02:18:06.046Z,16.80
2018-08-30T02:20:39.652Z,16.80
2018-08-30T02:23:28.429Z,16.80
2018-08-30T02:26:05.283Z,16.90
2018-08-30T02:28:43.838Z,16.80
2018-08-30T02:31:29.081Z,16.80
2018-08-30T02:34:09.887Z,16.80
2018-08-30T02:36:49.459Z,16.70
2018-08-30T02:39:30.978Z,16.70
2018-08-30T02:42:04.153Z,16.70
2018-08-30T02:44:49.256Z,16.80
2018-08-30T02:47:28.394Z,16.80
2018-08-30T02:50:03.332Z,16.80
2018-08-30T02:52:40.406Z,16.80
2018-08-30T02:55:10.506Z,16.80
2018-08-30T02:57:52.193Z,16.80
2018-08-30T03:00:30.597Z,16.90
2018-08-30T03:10:07.826Z,16.90
2018-08-30T03:12:42.597Z,16.90
2018-08-30T03:15:20.754Z,16.90
2018-08-30T03:17:51.598Z,16.90
2018-08-30T03:20:27.661Z,16.90
2018-08-30T03:22:59.213Z,16.90
2018-08-30T03:25:32.401Z,16.90
2018-08-30T03:28:08.976Z,16.80
2018-08-30T03:30:48.203Z,16.80
2018-08-30T03:33:26.871Z,16.80
2018-08-30T03:36:03.483Z,16.90
2018-08-30T03:38:35.712Z,16.90
2018-08-30T03:41:10.119Z,16.90
2018-08-30T03:43:45.844Z,16.90
2018-08-30T03:47:23.780Z,16.90
2018-08-30T03:49:57.849Z,16.90
2018-08-30T03:52:37.932Z,16.90
2018-08-30T03:55:09.176Z,16.90
2018-08-30T03:57:40.194Z,17.00
2018-08-30T04:00:14.122Z,17.20
2018-08-30T04:02:44.052Z,17.50
2018-08-30T04:05:24.390Z,17.60
2018-08-30T04:07:55.941Z,17.60
2018-08-30T04:10:42.988Z,17.70
2018-08-30T04:13:23.439Z,17.70
2018-08-30T04:15:58.693Z,17.60
2018-08-30T04:18:39.286Z,17.50
2018-08-30T04:21:19.493Z,17.40
2018-08-30T04:23:50.988Z,17.30
2018-08-30T04:26:27.046Z,17.30
2018-08-30T04:29:04.486Z,17.20
2018-08-30T04:31:37.526Z,17.30
2018-08-30T04:34:10.352Z,17.90
2018-08-30T04:36:46.524Z,18.10
2018-08-30T04:39:24.693Z,18.80
2018-08-30T04:42:01.165Z,18.90
2018-08-30T04:44:55.895Z,19.00
2018-08-30T04:47:39.224Z,19.30
2018-08-30T04:50:19.574Z,19.30
2018-08-30T04:53:04.732Z,19.20
2018-08-30T04:55:41.805Z,19.60
2018-08-30T04:58:19.830Z,19.60
2018-08-30T05:00:53.860Z,19.10
2018-08-30T05:03:35.491Z,18.60
2018-08-30T05:06:14.589Z,18.20
2018-08-30T05:13:38.755Z,17.70
2018-08-30T05:16:09.373Z,17.70
2018-08-30T05:18:51.025Z,18.60
2018-08-30T05:21:20.392Z,18.70
2018-08-30T05:24:00.036Z,18.90
2018-08-30T05:26:34.370Z,19.30
2018-08-30T05:29:08.592Z,19.50
2018-08-30T05:31:49.190Z,19.10
2018-08-30T05:34:25.013Z,18.40
2018-08-30T05:36:58.479Z,18.00
2018-08-30T05:39:42.082Z,17.80
2018-08-30T05:42:18.187Z,17.60
2018-08-30T05:45:28.859Z,17.50
2018-08-30T05:48:05.151Z,17.30
2018-08-30T05:50:44.711Z,17.30
2018-08-30T05:53:15.679Z,17.30
2018-08-30T05:55:50.464Z,17.20
2018-08-30T05:58:20.219Z,17.30
2018-08-30T06:00:52.601Z,17.30
2018-08-30T06:03:25.386Z,17.40
2018-08-30T06:06:06.040Z,17.00
2018-08-30T06:08:44.410Z,17.30
2018-08-30T06:11:27.786Z,17.40
2018-08-30T06:14:05.625Z,17.50
2018-08-30T06:16:47.154Z,17.90
2018-08-30T06:19:20.029Z,18.30
2018-08-30T06:22:00.865Z,18.70
2018-08-30T06:24:33.470Z,18.70
2018-08-30T06:27:14.767Z,18.80
2018-08-30T06:29:59.941Z,18.70
2018-08-30T06:32:44.104Z,18.70
2018-08-30T06:35:18.639Z,18.70
2018-08-30T06:37:59.389Z,18.80
2018-08-30T06:40:33.766Z,18.90
2018-08-30T06:43:21.841Z,19.00
2018-08-30T06:46:03.869Z,19.20
2018-08-30T06:49:22.323Z,19.20
2018-08-30T06:52:01.713Z,19.00
2018-08-30T06:54:35.742Z,18.80
2018-08-30T06:57:11.229Z,18.70
2018-08-30T07:00:03.214Z,18.50
2018-08-30T07:02:49.698Z,18.50
2018-08-30T07:05:22.818Z,18.30
2018-08-30T07:07:58.886Z,18.50
2018-08-30T07:10:37.428Z,18.20
2018-08-30T07:13:15.545Z,18.20
2018-08-30T07:15:48.698Z,18.20
2018-08-30T07:18:30.428Z,18.20
2018-08-30T07:21:18.791Z,18.30
2018-08-30T07:24:04.629Z,18.50
2018-08-30T07:27:07.236Z,18.50
2018-08-30T07:30:02.436Z,18.70
2018-08-30T07:32:37.820Z,19.70
2018-08-30T07:35:20.131Z,21.60
2018-08-30T07:38:04.473Z,23.00
2018-08-30T07:40:46.602Z,24.10
2018-08-30T07:43:23.996Z,24.90
2018-08-30T07:46:39.496Z,25.60
2018-08-30T07:49:17.602Z,26.20
2018-08-30T07:54:54.282Z,26.20
2018-08-30T07:57:31.517Z,26.40
2018-08-30T08:00:19.333Z,26.90
2018-08-30T08:03:05.637Z,27.70
2018-08-30T08:05:49.992Z,27.80
2018-08-30T08:08:36.397Z,26.60
2018-08-30T08:11:17.285Z,25.10
2018-08-30T08:14:08.101Z,25.10
2018-08-30T08:16:56.746Z,25.80
2018-08-30T08:19:51.874Z,26.40
2018-08-30T08:22:43.477Z,26.50
2018-08-30T08:28:22.326Z,24.30
2018-08-30T08:31:25.020Z,24.00
2018-08-30T08:37:07.777Z,23.30
2018-08-30T08:42:03.613Z,22.70
2018-08-30T08:44:40.356Z,22.30
2018-08-30T08:47:26.764Z,23.80
2018-08-30T08:50:03.194Z,24.20
2018-08-30T08:52:50.002Z,24.10
2018-08-30T08:55:35.312Z,23.10
2018-08-30T08:58:28.738Z,22.50
2018-08-30T09:01:14.958Z,22.30
2018-08-30T09:03:58.102Z,22.20
2018-08-30T09:06:39.517Z,22.00
2018-08-30T09:09:39.736Z,21.90
2018-08-30T09:12:16.250Z,21.90
2018-08-30T09:15:37.661Z,22.30
2018-08-30T09:18:19.032Z,23.40
2018-08-30T09:21:02.244Z,24.00
2018-08-30T09:23:50.106Z,23.60
2018-08-30T09:26:42.977Z,23.50
2018-08-30T09:32:59.946Z,24.70
2018-08-30T09:35:51.247Z,25.20
2018-08-30T09:44:34.575Z,22.60
2018-08-30T09:47:18.727Z,22.10
2018-08-30T09:50:06.364Z,21.70
2018-08-30T09:58:39.127Z,21.90
2018-08-30T10:01:34.265Z,22.10
2018-08-30T10:04:20.852Z,21.80
2018-08-30T10:06:59.606Z,21.60
2018-08-30T10:09:51.841Z,21.80
2018-08-30T10:12:31.555Z,22.10
2018-08-30T10:20:58.380Z,22.30
2018-08-30T10:23:36.301Z,23.00
2018-08-30T10:26:32.528Z,23.50
2018-08-30T10:34:29.816Z,23.20
2018-08-30T10:37:17.373Z,22.40
2018-08-30T10:39:54.501Z,22.00
2018-08-30T10:43:01.887Z,22.10
2018-08-30T10:45:56.773Z,22.30
2018-08-30T10:48:43.532Z,23.00
2018-08-30T10:51:32.619Z,23.80
2018-08-30T10:57:17.930Z,24.30
2018-08-30T11:00:03.463Z,24.90
2018-08-30T11:02:51.464Z,25.10
2018-08-30T11:05:34.985Z,25.10
2018-08-30T11:17:58.338Z,24.10
2018-08-30T11:39:34.728Z,25.50
2018-08-30T11:42:34.158Z,25.70
2018-08-30T11:45:25.570Z,26.00
2018-08-30T11:48:23.585Z,25.30
2018-08-30T12:06:50.053Z,24.90
2018-08-30T12:09:35.876Z,24.90
2018-08-30T12:12:20.792Z,24.90
2018-08-30T12:19:50.487Z,24.70
2018-08-30T12:22:44.499Z,24.80
2018-08-30T12:25:36.788Z,25.10
2018-08-30T12:31:38.276Z,25.60
2018-08-30T12:40:05.245Z,25.10
2018-08-30T12:52:12.880Z,25.30
2018-08-30T12:55:35.767Z,25.10
2018-08-30T13:24:31.488Z,25.20
2018-08-30T13:27:46.144Z,25.30
2018-08-30T13:30:59.211Z,25.20
2018-08-30T13:33:46.185Z,25.10
2018-08-30T13:49:17.913Z,24.30
2018-08-30T13:58:53.688Z,24.10
2018-08-30T14:01:57.635Z,24.10
2018-08-30T14:04:55.174Z,24.20
2018-08-30T14:10:38.980Z,24.30
2018-08-30T14:13:39.378Z,24.20
2018-08-30T14:16:49.006Z,24.10
2018-08-30T14:19:53.913Z,24.20
2018-08-30T14:22:47.941Z,24.10
2018-08-30T14:28:37.260Z,23.80
2018-08-30T14:31:57.640Z,23.50
2018-08-30T14:34:42.161Z,23.50
2018-08-30T14:37:29.950Z,23.50
2018-08-30T16:39:32.429Z,22.20
2018-08-30T16:42:25.301Z,22.10
2018-08-30T16:45:29.347Z,21.90
2018-08-30T17:05:28.643Z,21.50
2018-08-30T17:11:26.937Z,21.60
2018-08-30T17:14:17.728Z,21.50
2018-08-30T17:47:11.095Z,20.80
2018-08-30T17:55:53.251Z,21.00
2018-08-30T18:20:59.322Z,20.00
2018-08-30T18:26:56.276Z,20.00
2018-08-30T18:29:47.866Z,19.90
2018-08-30T19:12:21.862Z,20.00
2018-08-30T19:15:05.713Z,20.30
2018-08-30T19:26:30.838Z,20.30
2018-08-30T19:32:46.069Z,20.60
2018-08-30T19:38:27.219Z,19.90
2018-08-30T19:47:06.362Z,20.00
2018-08-30T19:50:09.830Z,20.10
2018-08-30T19:53:19.245Z,20.10
2018-08-30T20:32:56.982Z,19.00
2018-08-30T20:41:02.458Z,18.50
2018-08-30T20:46:40.503Z,18.40
2018-08-30T20:49:25.387Z,17.80
2018-08-30T20:58:49.525Z,17.50
2018-08-30T21:01:28.469Z,17.40
2018-08-30T21:04:22.042Z,17.30
2018-08-30T21:07:08.445Z,17.30
2018-08-30T21:09:50.873Z,17.30
2018-08-30T21:12:33.328Z,17.20
2018-08-30T21:15:19.711Z,17.10
2018-08-30T21:21:16.141Z,17.00
2018-08-30T21:23:54.440Z,17.00
2018-08-30T21:36:28.044Z,16.80
2018-08-30T21:57:48.009Z,16.40
2018-08-30T22:12:28.632Z,16.30
2018-08-30T22:15:11.421Z,16.20
2018-08-30T22:18:11.449Z,16.10
2018-08-30T22:20:58.851Z,16.10
2018-08-30T22:23:54.951Z,16.00
2018-08-30T22:32:30.690Z,16.00
2018-08-30T22:35:16.460Z,15.90
2018-08-30T22:38:10.721Z,15.80
2018-08-30T22:41:29.534Z,15.70
2018-08-30T22:44:38.178Z,15.70
2018-08-30T22:53:43.168Z,15.60
2018-08-30T23:00:16.592Z,15.50
2018-08-30T23:02:57.947Z,15.50
2018-08-30T23:05:45.684Z,15.50
2018-08-30T23:08:34.945Z,15.50
2018-08-30T23:15:01.926Z,15.40
2018-08-30T23:23:44.413Z,15.30
2018-08-30T23:27:05.160Z,15.20
2018-08-30T23:30:54.337Z,15.10
2018-08-30T23:33:55.399Z,15.10
2018-08-30T23:36:44.987Z,15.00
2018-08-30T23:39:26.570Z,15.00
2018-08-30T23:42:25.459Z,15.00
2018-08-30T23:56:24.126Z,14.90
2018-08-30T23:59:21.473Z,14.70
